Time;durP1;ratioP1;P1;durP2;ratioP2;P2;SDS_P1;SDS_P2;PMS_P1;PMS_P2;Temp;Humidity;BMP_temperature;BMP_pressure;BME280_temperature;BME280_humidity;BME280_pressure;Samples;Min_cycle;Max_cycle;Signal;HPM_P1;HPM_P2
2023/03/05 00:01:21;;;;;;;43.43;33.63;;;;;;;7.06;97.48;99089.75;5098306;28;20257;-56
2023/03/05 00:03:51;;;;;;;49.93;35.73;;;;;;;7.02;98.22;99085.44;5098647;28;20194;-59
2023/03/05 00:06:17;;;;;;;46.57;34.33;;;;;;;6.87;98.07;99059.50;5098442;28;20194;-55
2023/03/05 00:08:45;;;;;;;46.33;33.43;;;;;;;6.98;98.50;99088.72;5098366;28;20164;-55
2023/03/05 00:11:13;;;;;;;42.70;31.13;;;;;;;7.00;98.01;99087.94;5098297;28;20176;-55
2023/03/05 00:13:40;;;;;;;40.90;30.17;;;;;;;7.02;98.21;99086.28;5098280;28;20176;-55
2023/03/05 00:16:09;;;;;;;45.03;32.33;;;;;;;7.06;97.34;99093.19;5098245;28;20176;-54
2023/03/05 00:18:36;;;;;;;42.00;31.20;;;;;;;7.07;97.14;99091.50;5098193;28;20217;-55
2023/03/05 00:21:05;;;;;;;46.80;31.20;;;;;;;7.12;97.20;99088.22;5098210;28;20203;-54
2023/03/05 00:23:32;;;;;;;40.33;31.47;;;;;;;7.14;97.26;99083.16;5098382;28;20194;-55
2023/03/05 00:26:02;;;;;;;39.17;30.87;;;;;;;7.14;97.21;99085.72;5098353;28;20205;-55
2023/03/05 00:28:29;;;;;;;42.60;31.13;;;;;;;7.14;96.57;99075.50;5097987;28;20210;-55
2023/03/05 00:31:00;;;;;;;43.73;31.90;;;;;;;7.17;96.65;99069.59;5098258;28;20175;-55
2023/03/05 00:33:26;;;;;;;45.20;31.43;;;;;;;7.17;96.89;99075.53;5098126;28;20182;-55
2023/03/05 00:35:53;;;;;;;44.40;32.93;;;;;;;7.18;96.83;99067.06;5098131;28;20204;-55
2023/03/05 00:38:21;;;;;;;47.77;32.73;;;;;;;7.22;97.25;99058.66;5098056;28;20183;-55
2023/03/05 00:40:51;;;;;;;40.77;31.20;;;;;;;7.24;97.21;99059.53;5097965;28;20206;-55
2023/03/05 00:43:17;;;;;;;43.77;30.40;;;;;;;7.17;97.11;99059.38;5098048;28;20168;-55
2023/03/05 00:45:44;;;;;;;48.10;32.63;;;;;;;7.21;97.54;99064.59;5098015;28;20179;-55
2023/03/05 00:48:11;;;;;;;42.17;31.67;;;;;;;7.22;96.43;99051.00;5097964;28;20256;-55
2023/03/05 00:50:38;;;;;;;45.73;33.93;;;;;;;7.19;95.72;99055.16;5097767;28;20171;-55
2023/03/05 00:53:04;;;;;;;49.33;33.00;;;;;;;7.13;95.91;99055.88;5097862;28;20178;-56
2023/03/05 00:55:34;;;;;;;48.80;35.60;;;;;;;7.07;95.65;99053.19;5097731;28;20205;-55
2023/03/05 00:58:01;;;;;;;43.27;33.23;;;;;;;6.98;96.72;99048.72;5097898;28;20164;-53
2023/03/05 01:00:28;;;;;;;49.17;35.63;;;;;;;6.93;96.37;99044.34;5097627;28;20203;-54
2023/03/05 01:02:55;;;;;;;51.97;35.40;;;;;;;6.84;97.16;99045.00;5097691;28;20194;-54
2023/03/05 01:05:22;;;;;;;45.87;34.73;;;;;;;6.78;97.18;99044.00;5097716;28;20174;-54
2023/03/05 01:07:52;;;;;;;51.27;37.33;;;;;;;6.78;97.15;99047.41;5097670;28;20175;-54
2023/03/05 01:10:19;;;;;;;50.93;36.63;;;;;;;6.76;97.71;99048.19;5097719;28;20171;-54
2023/03/05 01:12:47;;;;;;;48.53;41.05;;;;;;;6.82;97.97;99041.53;5096682;28;20433;-54
2023/03/05 01:15:14;;;;;;;48.43;36.77;;;;;;;6.89;97.76;99050.22;5097605;28;20192;-54
2023/03/05 01:17:41;;;;;;;45.43;33.50;;;;;;;6.93;97.24;99050.31;5097618;28;20245;-54
2023/03/05 01:20:09;;;;;;;45.33;33.27;;;;;;;6.95;97.24;99042.72;5097471;28;20195;-54
2023/03/05 01:22:36;;;;;;;40.23;32.23;;;;;;;6.95;97.33;99035.88;5097503;28;20191;-55
2023/03/05 01:25:04;;;;;;;50.90;34.83;;;;;;;7.02;96.82;99042.88;5097499;28;20230;-54
2023/03/05 01:27:31;;;;;;;49.17;34.53;;;;;;;7.01;96.31;99045.38;5097287;28;20196;-54
2023/03/05 01:29:59;;;;;;;48.87;35.73;;;;;;;7.04;96.31;99046.31;5097440;28;20168;-54
2023/03/05 01:32:25;;;;;;;45.83;33.77;;;;;;;7.04;96.24;99037.78;5097489;28;20176;-55
2023/03/05 01:34:52;;;;;;;45.70;33.40;;;;;;;6.98;95.79;99027.44;5097457;28;20172;-54
2023/03/05 01:37:19;;;;;;;46.67;32.73;;;;;;;7.01;95.54;99030.06;5097306;28;20171;-55
2023/03/05 01:39:46;;;;;;;46.67;34.13;;;;;;;7.06;95.81;99037.00;5097445;28;20196;-55
2023/03/05 01:42:13;;;;;;;49.97;36.10;;;;;;;7.06;94.93;99033.56;5097189;28;20195;-55
2023/03/05 01:44:39;;;;;;;47.17;35.23;;;;;;;7.04;94.69;99038.66;5097396;28;20237;-55
2023/03/05 01:47:07;;;;;;;49.87;36.37;;;;;;;6.98;95.42;99027.44;5097267;28;20172;-55
2023/03/05 01:49:36;;;;;;;51.00;36.93;;;;;;;6.80;95.54;99015.13;5097375;28;20175;-55
2023/03/05 01:52:08;;;;;;;53.00;37.60;;;;;;;6.77;95.16;99026.94;5097186;28;20273;-55
2023/03/05 01:54:38;;;;;;;47.53;36.87;;;;;;;6.78;95.43;99029.56;5097306;28;20171;-56
2023/03/05 01:57:11;;;;;;;48.63;34.27;;;;;;;6.79;95.55;99020.16;5097347;28;20206;-55
2023/03/05 01:59:40;;;;;;;48.90;34.77;;;;;;;6.77;95.13;99021.84;5097238;28;20210;-55
2023/03/05 02:02:09;;;;;;;48.33;32.97;;;;;;;6.78;95.60;99018.47;5098995;28;20200;-55
2023/03/05 02:04:41;;;;;;;51.27;35.10;;;;;;;6.81;95.34;99028.75;5100990;28;20179;-55
2023/03/05 02:07:09;;;;;;;44.77;33.03;;;;;;;6.79;95.52;99017.63;5100831;28;20176;-55
2023/03/05 02:09:38;;;;;;;44.57;33.50;;;;;;;6.64;95.75;98989.19;5100989;28;20171;-55
2023/03/05 02:12:05;;;;;;;47.30;34.23;;;;;;;6.90;95.49;99013.63;5100880;28;20171;-55
2023/03/05 02:14:33;;;;;;;52.57;37.30;;;;;;;6.96;95.96;99008.66;5100763;28;20189;-54
2023/03/05 02:17:00;;;;;;;46.47;35.20;;;;;;;6.98;96.08;99012.97;5100533;28;20205;-58
2023/03/05 02:19:28;;;;;;;53.43;35.83;;;;;;;7.01;96.24;99012.19;5100674;28;20175;-54
2023/03/05 02:21:56;;;;;;;52.53;36.60;;;;;;;7.02;95.76;99004.56;5100525;28;20263;-54
2023/03/05 02:24:40;;;;;;;50.63;37.20;;;;;;;7.06;96.20;99010.59;5100552;28;20167;-54
2023/03/05 02:27:07;;;;;;;47.13;34.23;;;;;;;7.06;95.73;99008.03;5100333;28;20207;-54
2023/03/05 02:29:37;;;;;;;51.83;35.73;;;;;;;7.08;96.03;99009.81;5100642;28;20176;-54
2023/03/05 02:32:05;;;;;;;54.07;36.57;;;;;;;7.08;95.25;99011.50;5100478;28;20198;-54
2023/03/05 02:34:32;;;;;;;51.10;36.30;;;;;;;7.12;95.44;99015.84;5100463;28;20171;-55
2023/03/05 02:37:03;;;;;;;46.80;35.67;;;;;;;7.18;94.71;99012.56;5100300;28;20186;-55
2023/03/05 02:39:30;;;;;;;48.13;35.23;;;;;;;7.12;94.26;99005.63;5100392;28;20168;-55
2023/03/05 02:41:57;;;;;;;59.37;36.13;;;;;;;7.14;94.82;99004.81;5100251;28;20195;-55
2023/03/05 02:44:23;;;;;;;46.17;36.00;;;;;;;7.17;94.91;98998.06;5100389;28;20191;-54
2023/03/05 02:46:50;;;;;;;50.93;36.47;;;;;;;7.21;94.46;99002.41;5100281;28;20172;-55
2023/03/05 02:49:17;;;;;;;49.60;35.90;;;;;;;7.25;94.46;99004.22;5100059;28;20179;-55
2023/03/05 02:51:44;;;;;;;51.77;36.73;;;;;;;7.27;94.44;98995.75;5099957;28;20209;-55
2023/03/05 02:54:12;;;;;;;51.07;33.63;;;;;;;7.29;94.40;98991.53;5100089;28;20235;-54
2023/03/05 02:56:39;;;;;;;41.67;30.73;;;;;;;7.26;93.78;99000.81;5099941;28;20210;-54
2023/03/05 02:59:06;;;;;;;42.63;31.93;;;;;;;7.33;93.72;98998.44;5099820;28;20172;-54
2023/03/05 03:01:32;;;;;;;41.70;31.00;;;;;;;7.30;92.64;99000.91;5099838;28;20191;-54
2023/03/05 03:03:59;;;;;;;42.20;30.10;;;;;;;7.28;92.09;99009.38;5099885;28;20184;-54
2023/03/05 03:06:26;;;;;;;37.90;30.17;;;;;;;7.30;92.01;99012.81;5099806;28;20202;-54
2023/03/05 03:08:53;;;;;;;36.53;29.97;;;;;;;7.27;91.81;99008.53;5099773;28;20173;-54
2023/03/05 03:11:21;;;;;;;40.03;30.03;;;;;;;7.25;92.13;99019.53;5099768;28;20175;-54
2023/03/05 03:13:48;;;;;;;40.27;28.87;;;;;;;7.19;91.85;99004.06;5099592;28;20175;-53
2023/03/05 03:16:16;;;;;;;38.93;29.67;;;;;;;7.19;91.47;99012.59;5099525;28;20168;-53
2023/03/05 03:18:43;;;;;;;38.73;27.93;;;;;;;7.17;91.20;99004.03;5099581;28;20178;-54
2023/03/05 03:21:16;;;;;;;38.57;26.37;;;;;;;7.14;90.90;99003.97;5099428;28;20217;-55
2023/03/05 03:23:43;;;;;;;32.00;25.23;;;;;;;7.12;90.32;98998.81;5099557;28;20164;-54
2023/03/05 03:26:10;;;;;;;33.37;25.57;;;;;;;7.03;90.46;98996.06;5099384;28;20183;-54
2023/03/05 03:28:38;;;;;;;34.37;24.90;;;;;;;7.10;90.47;99004.72;5099210;28;20203;-54
2023/03/05 03:31:05;;;;;;;34.83;25.33;;;;;;;7.07;90.91;98989.34;5099527;28;20189;-54
2023/03/05 03:33:32;;;;;;;32.03;25.40;;;;;;;7.07;90.90;98999.56;5099145;28;20215;-54
2023/03/05 03:35:59;;;;;;;36.80;25.70;;;;;;;7.05;90.78;98991.88;5099283;28;20171;-54
2023/03/05 03:38:26;;;;;;;34.37;25.87;;;;;;;7.03;91.55;98996.06;5099179;28;20189;-54
2023/03/05 03:40:52;;;;;;;31.23;25.17;;;;;;;7.08;91.28;98994.50;5099115;28;20217;-55
2023/03/05 03:43:19;;;;;;;39.23;28.23;;;;;;;7.05;90.95;98991.00;5099129;28;20202;-54
2023/03/05 03:45:48;;;;;;;43.28;35.20;;;;;;;7.10;92.09;99003.03;5098264;28;20440;-54
2023/03/05 03:48:14;;;;;;;41.37;30.67;;;;;;;7.12;91.91;98995.41;5099086;28;20186;-56
2023/03/05 03:50:42;;;;;;;40.70;30.97;;;;;;;7.05;91.63;98991.00;5099055;28;20188;-55
2023/03/05 03:53:12;;;;;;;40.93;31.80;;;;;;;7.01;91.80;98994.31;5098938;28;20168;-55
2023/03/05 03:55:40;;;;;;;40.90;30.67;;;;;;;6.98;92.05;98992.53;5098857;28;20236;-56
2023/03/05 03:58:07;;;;;;;41.63;30.13;;;;;;;6.94;92.76;98980.56;5098790;28;20172;-55
2023/03/05 04:00:34;;;;;;;40.27;29.83;;;;;;;6.42;92.70;98907.06;5098782;28;20171;-56
2023/03/05 04:03:02;;;;;;;40.47;30.93;;;;;;;6.85;93.02;98987.13;5098778;28;20214;-55
2023/03/05 04:05:29;;;;;;;42.63;32.60;;;;;;;6.82;93.47;98994.72;5098658;28;20172;-55
2023/03/05 04:07:57;;;;;;;45.10;32.70;;;;;;;6.71;93.64;98986.81;5098624;28;20207;-55
2023/03/05 04:10:24;;;;;;;38.43;29.00;;;;;;;6.70;93.64;99000.44;5098788;28;20172;-55
2023/03/05 04:12:50;;;;;;;39.17;27.63;;;;;;;6.67;94.49;99000.34;5098630;28;20174;-55
2023/03/05 04:15:17;;;;;;;37.37;26.60;;;;;;;6.67;93.77;98996.94;5098588;28;20181;-55
2023/03/05 04:17:44;;;;;;;36.93;26.20;;;;;;;6.63;94.02;98998.53;5098585;28;20200;-55
2023/03/05 04:20:13;;;;;;;37.63;25.50;;;;;;;6.59;93.30;98998.44;5098631;28;20180;-55
2023/03/05 04:22:40;;;;;;;33.83;25.17;;;;;;;6.56;92.56;99006.91;5098217;28;20203;-56
2023/03/05 04:25:08;;;;;;;34.10;24.20;;;;;;;6.59;93.00;99001.00;5097837;28;20167;-55
2023/03/05 04:27:36;;;;;;;37.97;25.17;;;;;;;6.54;92.78;98986.41;5098186;28;20206;-53
2023/03/05 04:30:03;;;;;;;32.63;24.13;;;;;;;6.50;92.71;98982.09;5098376;28;20198;-55
2023/03/05 04:32:30;;;;;;;31.70;24.17;;;;;;;6.63;92.60;99000.22;5098313;28;20179;-54
2023/03/05 04:34:57;;;;;;;29.40;22.77;;;;;;;6.65;91.91;99001.16;5098213;28;20172;-54
2023/03/05 04:37:25;;;;;;;29.83;22.70;;;;;;;6.63;91.54;99001.09;5098025;28;20175;-55
2023/03/05 04:39:53;;;;;;;33.17;24.27;;;;;;;6.60;90.45;99002.69;5098155;28;20212;-54
2023/03/05 04:42:20;;;;;;;31.07;22.57;;;;;;;6.60;90.95;99003.56;5098095;28;20221;-55
2023/03/05 04:44:47;;;;;;;31.17;22.57;;;;;;;6.63;91.43;99006.19;5098116;28;20193;-55
2023/03/05 04:47:14;;;;;;;30.70;22.83;;;;;;;6.65;91.20;99004.53;5086959;28;20182;-54
2023/03/05 04:49:41;;;;;;;33.03;23.47;;;;;;;6.64;90.86;98994.31;5078010;28;20176;-54
2023/03/05 04:52:07;;;;;;;30.90;24.63;;;;;;;6.66;90.56;99001.16;5077732;28;20179;-54
2023/03/05 04:54:36;;;;;;;31.10;23.10;;;;;;;6.70;90.76;98997.00;5077867;28;20202;-54
2023/03/05 04:57:02;;;;;;;31.77;23.33;;;;;;;6.70;90.49;98994.47;5077812;28;20175;-54
2023/03/05 04:59:29;;;;;;;31.67;22.87;;;;;;;6.66;90.46;99005.41;5079841;28;20177;-54
2023/03/05 05:01:56;;;;;;;29.80;22.80;;;;;;;6.69;90.85;99008.03;5077787;28;20215;-54
2023/03/05 05:04:23;;;;;;;30.80;24.77;;;;;;;6.64;90.62;99002.84;5090577;28;20209;-54
2023/03/05 05:06:50;;;;;;;31.47;23.93;;;;;;;6.64;90.73;99004.50;5097923;28;20179;-55
2023/03/05 05:09:17;;;;;;;31.87;24.57;;;;;;;6.68;90.59;98996.09;5087552;28;20198;-55
2023/03/05 05:11:45;;;;;;;35.60;27.25;;;;;;;6.75;90.69;99005.63;5096802;28;20452;-54
2023/03/05 05:14:12;;;;;;;31.57;24.60;;;;;;;6.83;90.61;99007.53;5103264;28;20204;-54
2023/03/05 05:16:38;;;;;;;32.83;24.17;;;;;;;6.80;89.84;99006.59;5088473;28;20207;-54
2023/03/05 05:19:05;;;;;;;34.33;24.23;;;;;;;6.84;90.43;99001.59;5077545;28;20173;-54
2023/03/05 05:21:32;;;;;;;30.07;23.83;;;;;;;6.89;89.65;99006.81;5082151;28;20216;-55
2023/03/05 05:23:59;;;;;;;30.40;23.67;;;;;;;6.86;89.90;99002.50;5093511;28;20206;-55
2023/03/05 05:26:25;;;;;;;33.37;24.73;;;;;;;6.90;89.37;99008.53;5090008;28;20195;-56
2023/03/05 05:28:54;;;;;;;32.13;24.63;;;;;;;6.83;89.70;99012.63;5091361;28;20223;-56
2023/03/05 05:31:20;;;;;;;35.60;26.88;;;;;;;6.87;90.27;99013.56;5096995;28;20426;-56
2023/03/05 05:33:48;;;;;;;34.37;24.53;;;;;;;6.93;90.37;99022.22;5094953;28;20196;-56
2023/03/05 05:36:18;;;;;;;30.57;23.63;;;;;;;6.66;90.18;98983.31;5092897;28;20247;-56
2023/03/05 05:38:45;;;;;;;33.30;26.63;;;;;;;6.84;89.58;99016.91;5099300;28;20176;-55
2023/03/05 05:41:13;;;;;;;37.53;24.73;;;;;;;6.84;90.43;99022.00;5102282;28;20185;-55
2023/03/05 05:43:40;;;;;;;33.50;23.63;;;;;;;6.92;90.03;99022.22;5106145;28;20212;-55
2023/03/05 05:46:12;;;;;;;29.70;23.90;;;;;;;6.93;89.59;99026.47;5094633;28;20200;-56
2023/03/05 05:48:39;;;;;;;29.10;22.70;;;;;;;6.97;88.68;99036.81;5091991;28;20191;-55
2023/03/05 05:51:07;;;;;;;32.93;23.10;;;;;;;6.99;88.54;99031.72;5101257;28;20171;-56
2023/03/05 05:53:34;;;;;;;32.80;23.97;;;;;;;7.03;88.73;99041.19;5101273;28;20193;-55
2023/03/05 05:56:00;;;;;;;32.63;23.97;;;;;;;7.07;88.08;99033.63;5100338;28;20181;-56
2023/03/05 05:58:27;;;;;;;32.97;25.90;;;;;;;7.04;87.86;99038.66;5101140;28;20175;-55
2023/03/05 06:00:54;;;;;;;28.00;22.27;;;;;;;7.04;87.45;99040.34;5101046;28;20211;-55
2023/03/05 06:03:22;;;;;;;28.37;23.87;;;;;;;7.05;87.64;99044.63;5101037;28;20205;-55
2023/03/05 06:05:50;;;;;;;31.37;25.47;;;;;;;7.16;88.40;99050.84;5101203;28;20198;-55
2023/03/05 06:08:17;;;;;;;34.57;26.07;;;;;;;7.26;88.09;99044.25;5100922;28;20175;-55
2023/03/05 06:10:44;;;;;;;30.80;24.93;;;;;;;7.39;87.73;99049.66;5100794;28;20176;-55
2023/03/05 06:13:11;;;;;;;38.27;28.43;;;;;;;7.43;87.41;99048.91;5100947;28;20191;-55
2023/03/05 06:15:38;;;;;;;41.97;32.70;;;;;;;7.41;87.63;99049.69;5081902;28;20187;-55
2023/03/05 06:18:04;;;;;;;49.23;36.33;;;;;;;7.45;87.59;99047.22;5080657;28;20168;-55
2023/03/05 06:20:33;;;;;;;51.47;37.27;;;;;;;7.46;87.94;99041.28;5080619;28;20195;-55
2023/03/05 06:22:59;;;;;;;50.10;36.67;;;;;;;7.46;87.75;99037.88;5080454;28;20207;-55
2023/03/05 06:25:26;;;;;;;46.53;35.30;;;;;;;7.42;87.50;99044.59;5100990;28;20189;-55
2023/03/05 06:27:53;;;;;;;45.77;34.43;;;;;;;7.40;87.67;99045.41;5120993;28;20215;-55
2023/03/05 06:30:20;;;;;;;43.60;34.43;;;;;;;7.39;87.67;99059.03;5120992;28;20178;-55
2023/03/05 06:32:46;;;;;;;45.47;33.10;;;;;;;7.40;87.73;99058.19;5120879;28;20171;-55
2023/03/05 06:35:13;;;;;;;53.17;39.42;;;;;;;7.43;88.52;99054.00;5120404;28;20455;-54
2023/03/05 06:37:41;;;;;;;42.93;35.50;;;;;;;7.47;88.43;99049.84;5120559;28;20191;-54
2023/03/05 06:40:10;;;;;;;52.63;35.13;;;;;;;7.52;88.62;99053.34;5120570;28;20175;-54
2023/03/05 06:42:36;;;;;;;43.23;33.33;;;;;;;7.54;88.47;99059.34;5120356;28;20201;-54
2023/03/05 06:45:04;;;;;;;43.60;33.80;;;;;;;7.56;88.05;99053.44;5111467;28;20199;-54
2023/03/05 06:47:31;;;;;;;42.60;34.43;;;;;;;7.58;87.74;99056.88;5099886;28;20170;-55
2023/03/05 06:49:58;;;;;;;45.13;33.50;;;;;;;7.66;87.97;99057.88;5100031;28;20244;-56
2023/03/05 06:52:24;;;;;;;47.20;34.47;;;;;;;7.72;86.95;99058.03;5100096;28;20214;-55
2023/03/05 06:54:54;;;;;;;45.30;33.77;;;;;;;7.79;86.66;99050.47;5099340;28;20217;-55
2023/03/05 06:57:21;;;;;;;41.93;33.37;;;;;;;7.90;86.64;99049.00;5099799;28;20206;-54
2023/03/05 06:59:48;;;;;;;37.87;30.87;;;;;;;7.99;85.88;99051.75;5100036;28;20194;-54
2023/03/05 07:02:15;;;;;;;46.30;29.33;;;;;;;7.97;84.97;99048.28;5103465;28;20225;-54
2023/03/05 07:04:41;;;;;;;37.57;29.50;;;;;;;7.92;85.26;99039.66;5099161;28;20163;-54
2023/03/05 07:07:08;;;;;;;37.33;28.10;;;;;;;7.97;85.08;99041.47;5099577;28;20174;-54
2023/03/05 07:09:41;;;;;;;37.47;28.87;;;;;;;8.03;85.04;99033.91;5097939;28;20164;-55
2023/03/05 07:12:10;;;;;;;36.93;29.63;;;;;;;8.01;85.05;99047.50;5100075;28;20167;-56
2023/03/05 07:14:37;;;;;;;36.30;28.47;;;;;;;7.99;85.33;99042.38;5091685;28;20192;-55
2023/03/05 07:17:05;;;;;;;34.43;28.30;;;;;;;8.08;85.16;99046.78;5099665;28;20172;-56
2023/03/05 07:19:32;;;;;;;34.97;27.07;;;;;;;8.08;84.89;99046.78;5091980;28;20179;-55
2023/03/05 07:21:59;;;;;;;36.70;27.93;;;;;;;8.21;84.99;99053.88;5098640;28;20194;-55
2023/03/05 07:24:28;;;;;;;36.87;28.07;;;;;;;8.29;84.99;99049.78;5101824;28;20195;-55
2023/03/05 07:26:55;;;;;;;39.47;28.87;;;;;;;8.32;84.19;99046.41;5099384;28;20176;-55
2023/03/05 07:29:24;;;;;;;40.47;30.70;;;;;;;8.35;84.27;99034.50;5091496;28;20229;-55
2023/03/05 07:31:50;;;;;;;39.73;31.97;;;;;;;8.54;84.03;99041.66;5098589;28;20182;-55
2023/03/05 07:34:17;;;;;;;44.73;31.43;;;;;;;8.74;83.50;99042.00;5099161;28;20202;-54
2023/03/05 07:36:45;;;;;;;42.63;32.57;;;;;;;8.79;82.85;99036.13;5117901;28;20213;-54
2023/03/05 07:39:13;;;;;;;43.53;31.03;;;;;;;8.93;82.47;99036.34;5094420;28;20196;-55
2023/03/05 07:41:39;;;;;;;39.50;29.53;;;;;;;9.12;81.66;99038.31;5094368;28;20176;-55
2023/03/05 07:44:06;;;;;;;42.63;30.60;;;;;;;9.24;81.32;99046.19;5092027;28;20222;-55
2023/03/05 07:46:35;;;;;;;44.70;29.93;;;;;;;9.41;80.69;99036.19;5098348;28;20164;-55
2023/03/05 07:49:01;;;;;;;38.93;28.37;;;;;;;9.63;79.94;99035.63;5098327;28;20176;-54
2023/03/05 07:51:28;;;;;;;37.37;27.47;;;;;;;9.90;79.03;99038.50;5102145;28;20180;-55
2023/03/05 07:53:57;;;;;;;37.77;27.30;;;;;;;10.07;77.56;99023.31;5098525;28;20202;-55
2023/03/05 07:56:26;;;;;;;32.00;23.30;;;;;;;10.42;75.89;99028.81;5098329;28;20491;-55
2023/03/05 07:58:53;;;;;;;33.37;24.97;;;;;;;10.65;74.48;99022.19;5094558;28;20200;-55
2023/03/05 08:01:19;;;;;;;30.83;22.90;;;;;;;10.91;73.21;99019.78;5093086;28;20239;-55
2023/03/05 08:03:48;;;;;;;31.17;23.20;;;;;;;11.12;71.92;99012.25;5098384;28;20199;-54
2023/03/05 08:06:15;;;;;;;31.17;22.77;;;;;;;11.21;71.91;99018.28;5098257;28;20188;-54
2023/03/05 08:08:41;;;;;;;24.30;18.67;;;;;;;11.16;71.06;99014.84;5098007;28;20186;-54
2023/03/05 08:11:11;;;;;;;24.03;18.77;;;;;;;11.37;69.29;99005.53;5091509;28;20186;-54
2023/03/05 08:13:38;;;;;;;26.80;18.80;;;;;;;11.45;68.58;99011.56;5097608;28;20182;-55
2023/03/05 08:16:06;;;;;;;25.00;19.80;;;;;;;11.67;67.92;98997.94;5098020;28;20184;-54
2023/03/05 08:18:32;;;;;;;27.00;19.50;;;;;;;11.88;67.94;99003.19;5098182;28;20168;-54
2023/03/05 08:21:01;;;;;;;29.07;19.17;;;;;;;12.17;67.15;98996.38;5098598;28;20167;-55
2023/03/05 08:23:28;;;;;;;27.77;19.10;;;;;;;12.36;66.36;98995.56;5098405;28;20195;-56
2023/03/05 08:25:55;;;;;;;32.00;21.10;;;;;;;12.43;64.53;98997.28;5095350;28;20222;-54
2023/03/05 08:28:22;;;;;;;30.70;22.00;;;;;;;12.52;64.50;98995.59;5098433;28;20229;-54
2023/03/05 08:30:49;;;;;;;31.07;21.10;;;;;;;12.56;63.96;98994.72;5114722;28;20217;-55
2023/03/05 08:33:17;;;;;;;31.70;22.13;;;;;;;12.51;63.42;98975.81;5118576;28;20167;-55
2023/03/05 08:35:44;;;;;;;27.67;21.70;;;;;;;12.67;63.57;98993.84;5111842;28;20180;-55
2023/03/05 08:38:12;;;;;;;28.03;20.37;;;;;;;12.71;63.70;98989.56;5097609;28;20171;-55
2023/03/05 08:40:39;;;;;;;29.87;21.07;;;;;;;12.46;64.39;98990.41;5097940;28;20203;-55
2023/03/05 08:43:06;;;;;;;29.00;20.87;;;;;;;12.40;65.49;98988.69;5098025;28;20199;-55
2023/03/05 08:45:33;;;;;;;29.03;22.07;;;;;;;12.27;65.22;98950.91;5096507;28;20206;-55
2023/03/05 08:48:00;;;;;;;29.27;21.70;;;;;;;12.46;64.50;98978.41;5097923;28;20179;-55
2023/03/05 08:50:26;;;;;;;27.80;22.17;;;;;;;12.43;64.63;98975.81;5097884;28;20202;-56
2023/03/05 08:52:55;;;;;;;29.47;22.07;;;;;;;12.35;65.58;98975.81;5096441;28;20190;-56
2023/03/05 08:55:23;;;;;;;31.80;22.97;;;;;;;12.51;65.46;98973.22;5097637;28;20255;-55
2023/03/05 08:57:50;;;;;;;32.30;23.87;;;;;;;12.62;65.21;98972.38;5097428;28;20175;-55
2023/03/05 09:00:18;;;;;;;36.03;25.43;;;;;;;12.75;65.12;98973.22;5097461;28;20213;-56
2023/03/05 09:02:44;;;;;;;28.33;22.70;;;;;;;12.77;63.78;98967.19;5097381;28;20207;-56
2023/03/05 09:05:11;;;;;;;31.03;22.37;;;;;;;12.61;63.60;98936.31;5097544;28;20181;-54
2023/03/05 09:07:38;;;;;;;31.03;23.90;;;;;;;12.91;63.39;98967.22;5097399;28;20193;-54
2023/03/05 09:10:08;;;;;;;30.00;22.00;;;;;;;12.90;62.77;98971.50;5097340;28;20195;-54
2023/03/05 09:12:37;;;;;;;32.65;26.23;;;;;;;12.99;62.51;98966.31;5096880;28;20429;-55
2023/03/05 09:15:04;;;;;;;34.17;24.13;;;;;;;12.93;62.05;98968.06;5097221;28;20179;-55
2023/03/05 09:17:30;;;;;;;31.07;22.60;;;;;;;12.82;62.42;98968.09;5096560;28;20183;-54
2023/03/05 09:19:57;;;;;;;27.97;21.93;;;;;;;12.96;62.11;98960.31;5096695;28;20163;-54
2023/03/05 09:22:24;;;;;;;30.87;22.97;;;;;;;12.89;63.04;98958.59;5099183;28;20195;-55
2023/03/05 09:24:50;;;;;;;32.13;24.10;;;;;;;12.89;62.54;98954.31;5096152;28;20182;-55
2023/03/05 09:27:17;;;;;;;34.80;22.33;;;;;;;12.90;62.86;98953.47;5096743;28;20203;-55
2023/03/05 09:29:45;;;;;;;32.33;23.33;;;;;;;13.05;62.96;98960.28;5097172;28;20194;-55
2023/03/05 09:32:12;;;;;;;34.77;22.53;;;;;;;13.03;61.88;98947.41;5078315;28;20195;-54
2023/03/05 09:34:39;;;;;;;30.13;22.77;;;;;;;12.98;61.92;98948.28;5075844;28;20249;-55
2023/03/05 09:37:06;;;;;;;32.97;20.57;;;;;;;13.15;60.53;98946.56;5077086;28;20176;-54
2023/03/05 09:39:32;;;;;;;30.03;21.97;;;;;;;13.18;59.38;98938.81;5074973;28;20173;-55
2023/03/05 09:42:35;;;;;;;33.67;21.90;;;;;;;13.28;58.39;98934.47;5075051;28;20211;-54
2023/03/05 09:45:15;;;;;;;33.73;22.10;;;;;;;13.37;58.51;98930.13;5074243;28;20179;-55
2023/03/05 09:47:56;;;;;;;27.70;21.63;;;;;;;13.60;57.04;98927.44;5075583;28;20173;-54
2023/03/05 09:50:38;;;;;;;31.17;22.30;;;;;;;13.62;57.37;98930.03;5075893;28;20165;-54
2023/03/05 09:53:13;;;;;;;27.13;20.23;;;;;;;13.78;55.82;98927.34;5076112;28;20178;-55
2023/03/05 09:55:44;;;;;;;28.80;19.50;;;;;;;13.91;54.11;98926.41;5076214;28;20191;-55
2023/03/05 09:58:14;;;;;;;28.60;20.37;;;;;;;13.92;53.52;98917.81;5076014;28;20193;-55
2023/03/05 10:00:45;;;;;;;29.33;21.03;;;;;;;13.87;53.85;98923.88;5075784;28;20173;-55
2023/03/05 10:03:17;;;;;;;28.07;21.27;;;;;;;13.90;54.53;98916.09;5076807;28;20193;-55
2023/03/05 10:05:53;;;;;;;29.53;20.60;;;;;;;13.69;55.06;98916.19;5076616;28;20212;-55
2023/03/05 10:08:27;;;;;;;27.40;20.63;;;;;;;13.70;55.27;98911.06;5076550;28;20181;-54
2023/03/05 10:10:54;;;;;;;25.37;20.07;;;;;;;13.81;54.43;98908.41;5076253;28;20174;-56
2023/03/05 10:13:24;;;;;;;26.30;18.90;;;;;;;13.82;54.64;98899.78;5076501;28;20209;-54
2023/03/05 10:16:03;;;;;;;27.53;19.63;;;;;;;13.57;55.20;98896.47;5076511;28;20178;-54
2023/03/05 10:18:37;;;;;;;28.97;20.90;;;;;;;13.63;55.61;98873.22;5076638;28;20244;-55
2023/03/05 10:21:08;;;;;;;28.37;20.23;;;;;;;13.90;54.51;98887.69;5076486;28;20175;-55
2023/03/05 10:23:49;;;;;;;25.73;18.30;;;;;;;14.04;53.99;98880.69;5078838;28;20219;-55
2023/03/05 10:26:27;;;;;;;26.57;19.40;;;;;;;14.09;52.72;98884.09;5080080;28;20210;-55
2023/03/05 10:29:04;;;;;;;28.70;17.93;;;;;;;13.90;52.50;98867.03;5080016;28;20206;-55
2023/03/05 10:31:50;;;;;;;26.13;20.77;;;;;;;13.93;53.24;98875.59;5080201;28;20171;-55
2023/03/05 10:34:43;;;;;;;25.03;18.80;;;;;;;13.84;53.01;98864.50;5080120;28;20208;-56
2023/03/05 10:37:24;;;;;;;27.37;19.23;;;;;;;13.98;53.24;98860.09;5080388;28;20173;-55
2023/03/05 10:40:13;;;;;;;27.27;19.20;;;;;;;14.03;52.82;98859.19;5080150;28;20179;-55
2023/03/05 10:42:48;;;;;;;25.43;17.73;;;;;;;13.92;51.92;98845.50;5080059;28;20171;-54
2023/03/05 10:45:18;;;;;;;25.63;19.03;;;;;;;14.03;52.61;98848.00;5079720;28;20175;-55
2023/03/05 10:47:51;;;;;;;29.33;20.20;;;;;;;14.22;52.40;98841.78;5079763;28;20175;-55
2023/03/05 10:50:21;;;;;;;27.60;20.47;;;;;;;14.27;50.77;98836.56;5079737;28;20194;-55
2023/03/05 10:52:54;;;;;;;29.40;19.23;;;;;;;14.32;50.13;98833.13;5079975;28;20210;-54
2023/03/05 10:55:22;;;;;;;24.77;19.20;;;;;;;14.28;49.66;98833.13;5079874;28;20187;-56
2023/03/05 10:57:49;;;;;;;24.10;18.30;;;;;;;14.18;49.77;98814.25;5079755;28;20176;-54
2023/03/05 11:00:22;;;;;;;25.20;18.77;;;;;;;14.45;49.47;98814.03;5079704;28;20222;-55
2023/03/05 11:02:59;;;;;;;25.37;18.00;;;;;;;14.50;48.49;98804.50;5079548;28;20179;-55
2023/03/05 11:05:47;;;;;;;25.27;17.93;;;;;;;14.52;48.69;98789.84;5088932;28;20179;-56
2023/03/05 11:08:30;;;;;;;24.27;18.50;;;;;;;14.57;48.52;98779.44;5098297;28;20186;-57
2023/03/05 11:11:14;;;;;;;21.33;16.87;;;;;;;14.24;48.70;98785.78;5097728;28;20247;-59
2023/03/05 11:13:51;;;;;;;23.93;17.47;;;;;;;14.45;49.04;98769.25;5096532;28;20248;-56
2023/03/05 11:16:21;;;;;;;26.23;20.17;;;;;;;14.51;48.49;98758.81;5098674;28;20179;-56
2023/03/05 11:18:49;;;;;;;22.07;17.53;;;;;;;14.48;48.44;98759.72;5098973;28;20176;-56
2023/03/05 11:21:26;;;;;;;24.80;17.23;;;;;;;14.70;48.12;98758.59;5098894;28;20179;-57
2023/03/05 11:24:12;;;;;;;27.67;17.57;;;;;;;14.74;47.48;98752.53;5094851;28;20222;-56
2023/03/05 11:26:46;;;;;;;24.10;18.40;;;;;;;14.84;47.32;98736.88;5097662;28;20185;-53
2023/03/05 11:29:19;;;;;;;23.23;17.60;;;;;;;14.85;46.73;98733.41;5096724;28;20171;-55